createdAt,value
2023-02-05T00:02:38.275Z,31.1
2023-02-05T00:08:16.874Z,33
2023-02-05T00:13:39.989Z,22.2
2023-02-05T00:19:17.003Z,28.8
2023-02-05T00:24:55.584Z,32.4
2023-02-05T00:30:34.354Z,32.4
2023-02-05T00:36:13.082Z,30.6
2023-02-05T00:41:51.366Z,31.3
2023-02-05T00:47:29.076Z,33.1
2023-02-05T00:53:07.609Z,31.3
2023-02-05T00:58:47.026Z,29.7
2023-02-05T01:04:24.719Z,32.2
2023-02-05T01:10:02.044Z,32.6
2023-02-05T01:15:40.720Z,30.8
2023-02-05T01:21:18.590Z,31.1
2023-02-05T01:26:56.798Z,32.9
2023-02-05T01:32:36.185Z,31.6
2023-02-05T01:38:13.903Z,29.3
2023-02-05T01:43:36.456Z,32.1
2023-02-05T01:49:14.848Z,32.8
2023-02-05T01:55:06.489Z,30.8
2023-02-05T02:00:43.222Z,30.9
2023-02-05T02:06:21.848Z,27.8
2023-02-05T02:11:59.870Z,27
2023-02-05T02:17:37.615Z,31.9
2023-02-05T02:23:15.443Z,32.9
2023-02-05T02:28:38.669Z,31
2023-02-05T02:34:16.575Z,31.2
2023-02-05T02:39:54.964Z,33
2023-02-05T02:45:17.369Z,31.6
2023-02-05T02:50:56.056Z,30
2023-02-05T02:56:03.031Z,32.3
2023-02-05T03:01:25.945Z,32.5
2023-02-05T03:06:53.327Z,30.8
2023-02-05T03:12:16.168Z,31.4
2023-02-05T03:17:07.553Z,33
2023-02-05T03:22:30.347Z,31.6
2023-02-05T03:28:08.682Z,30.1
2023-02-05T03:33:30.773Z,32.4
2023-02-05T03:39:09.335Z,32.6
2023-02-05T03:44:47.898Z,30.8
2023-02-05T03:50:25.827Z,31.5
2023-02-05T03:55:53.169Z,26.6
2023-02-05T04:01:31.434Z,27.1
2023-02-05T04:06:53.489Z,31.8
2023-02-05T04:12:16.038Z,33.3
2023-02-05T04:17:40.231Z,31.5
2023-02-05T04:23:03.088Z,30.7
2023-02-05T04:28:40.965Z,32.6
2023-02-05T04:34:19.849Z,32.5
2023-02-05T04:39:57.715Z,30.3
2023-02-05T04:45:19.977Z,31.8
2023-02-05T04:50:58.321Z,33.1
2023-02-05T04:56:35.733Z,31.3
2023-02-05T05:01:57.900Z,30.6
2023-02-05T05:07:35.927Z,32.5
2023-02-05T05:12:57.950Z,32.3
2023-02-05T05:18:36.591Z,30.1
2023-02-05T05:24:15.085Z,31.8
2023-02-05T05:29:52.364Z,33.1
2023-02-05T05:35:30.602Z,31.3
2023-02-05T05:41:08.996Z,30.6
2023-02-05T05:46:46.755Z,30.3
2023-02-05T05:52:23.776Z,19.6
2023-02-05T05:58:02.627Z,28.5
2023-02-05T06:03:39.955Z,31.9
2023-02-05T06:09:18.296Z,33.3
2023-02-05T06:14:43.385Z,31.6
2023-02-05T06:20:21.693Z,30.6
2023-02-05T06:25:59.421Z,32.6
2023-02-05T06:31:38.709Z,32.6
2023-02-05T06:37:16.546Z,30.6
2023-02-05T06:43:08.685Z,31.8
2023-02-05T06:48:47.349Z,33.1
2023-02-05T06:54:09.970Z,31.5
2023-02-05T06:59:47.698Z,30.4
2023-02-05T07:05:26.341Z,32.4
2023-02-05T07:11:04.917Z,32.6
2023-02-05T07:16:27.278Z,30.8
2023-02-05T07:22:05.916Z,31.6
2023-02-05T07:27:28.174Z,28.1
2023-02-05T07:33:06.574Z,24
2023-02-05T07:38:45.150Z,31.1
2023-02-05T07:44:07.459Z,33
2023-02-05T07:49:30.923Z,31.9
2023-02-05T07:55:09.644Z,29.6
2023-02-05T08:01:01.593Z,32.4
2023-02-05T08:06:39.949Z,32.8
2023-02-05T08:12:19.467Z,30.6
2023-02-05T08:18:03.877Z,31.4
2023-02-05T08:23:41.530Z,33.1
2023-02-05T08:29:20.336Z,31.2
2023-02-05T08:34:42.420Z,30.3
2023-02-05T08:40:05.003Z,32.5
2023-02-05T08:45:43.356Z,32.5
2023-02-05T08:51:34.732Z,30.3
2023-02-05T08:57:13.296Z,31.8
2023-02-05T09:02:52.115Z,33.3
2023-02-05T09:27:01.891Z,26.4
2023-02-05T09:32:40.630Z,31.8
2023-02-05T09:38:18.456Z,33.4
2023-02-05T09:45:01.773Z,31
2023-02-05T09:50:40.423Z,31.6
2023-02-05T09:56:19.149Z,33.3
2023-02-05T10:02:06.226Z,31
2023-02-05T10:07:43.750Z,30.9
2023-02-05T10:13:05.234Z,32.9
2023-02-05T10:18:44.377Z,31.7
2023-02-05T10:24:22.090Z,29.7
2023-02-05T10:30:00.384Z,32.4
2023-02-05T10:35:39.926Z,32.6
2023-02-05T10:41:01.826Z,30.4
2023-02-05T10:46:42.858Z,31.6
2023-02-05T10:52:21.820Z,33.3
2023-02-05T10:57:59.280Z,31.1
2023-02-05T11:03:37.663Z,30.5
2023-02-05T11:09:16.085Z,30.1
2023-02-05T11:14:40.001Z,28.3
2023-02-05T11:20:17.916Z,32.4
2023-02-05T11:25:56.794Z,32.8
2023-02-05T11:32:00.556Z,30.5
2023-02-05T11:37:22.387Z,31.9
2023-02-05T11:43:01.357Z,33.4
2023-02-05T11:48:40.177Z,30.9
2023-02-05T11:54:02.351Z,31.1
2023-02-05T11:59:52.181Z,33.1
2023-02-05T12:05:30.551Z,31.4
2023-02-05T12:11:07.709Z,30.3
2023-02-05T12:16:49.414Z,32.7
2023-02-05T12:22:26.568Z,31.9
2023-02-05T12:28:04.432Z,29.1
2023-02-05T12:33:28.540Z,32.3
2023-02-05T12:39:20.002Z,32.7
2023-02-05T12:44:42.203Z,30.4
2023-02-05T12:50:21.377Z,31.7
2023-02-05T12:55:58.565Z,28.9
2023-02-05T13:01:36.487Z,28.7
2023-02-05T13:07:15.856Z,32.8
2023-02-05T13:12:53.588Z,31.9
2023-02-05T13:18:32.439Z,30.2
2023-02-05T13:24:10.894Z,32.9
2023-02-05T13:29:55.183Z,31.9
2023-02-05T13:35:38.473Z,29.9
2023-02-05T13:41:20.426Z,32.5
2023-02-05T13:46:58.816Z,32.1
2023-02-05T13:52:38.189Z,29.1
2023-02-05T13:58:01.401Z,32.2
2023-02-05T14:03:40.277Z,32.6
2023-02-05T14:09:17.967Z,30.5
2023-02-05T14:15:08.198Z,31.8
2023-02-05T14:20:46.583Z,33.3
2023-02-05T14:26:11.622Z,30.8
2023-02-05T14:31:51.276Z,31
2023-02-05T14:37:25.809Z,32.9
2023-02-05T14:42:48.045Z,24.8
2023-02-05T14:48:32.932Z,27.9
2023-02-05T14:53:55.419Z,32.2
2023-02-05T14:59:33.445Z,32.9
2023-02-05T15:04:43.716Z,30.7
2023-02-05T15:10:21.789Z,31.6
2023-02-05T15:16:00.064Z,33.2
2023-02-05T15:21:28.762Z,31.6
2023-02-05T15:27:07.237Z,31.1
2023-02-05T15:32:30.100Z,32.9
2023-02-05T15:38:08.765Z,32.1
2023-02-05T15:43:46.539Z,30.6
2023-02-05T15:49:24.131Z,32.6
2023-02-05T15:55:02.279Z,32.1
2023-02-05T16:00:24.962Z,30.8
2023-02-05T16:06:03.265Z,29.8
2023-02-05T16:11:26.597Z,28.8
2023-02-05T16:22:27.786Z,26.9
2023-02-05T16:27:50.723Z,25.9
2023-02-05T16:33:42.340Z,25
2023-02-05T16:39:19.577Z,24.4
2023-02-05T16:44:43.353Z,30.9
2023-02-05T16:50:21.544Z,34.5
2023-02-05T16:55:44.234Z,35.8
2023-02-05T17:01:23.018Z,36.9
2023-02-05T17:06:46.402Z,37.3
2023-02-05T17:12:09.188Z,36.8
2023-02-05T17:17:48.098Z,36.2
2023-02-05T17:23:10.510Z,36.6
2023-02-05T17:28:48.416Z,36.6
2023-02-05T17:34:27.484Z,36.2
2023-02-05T17:40:08.724Z,38.4
2023-02-05T17:45:49.463Z,39.7
2023-02-05T17:51:28.102Z,39.6
2023-02-05T17:56:35.516Z,39.4
2023-02-05T18:01:58.212Z,39.1
2023-02-05T18:07:36.730Z,38.9
2023-02-05T18:12:59.495Z,39.7
2023-02-05T18:18:22.269Z,39.5
2023-02-05T18:24:01.410Z,39.1
2023-02-05T18:29:24.131Z,38.1
2023-02-05T18:34:50.470Z,38.4
2023-02-05T18:40:30.350Z,37.3
2023-02-05T18:45:52.998Z,37.1
2023-02-05T18:51:33.675Z,36.7
2023-02-05T18:56:56.681Z,37.2
2023-02-05T19:02:19.692Z,36.9
2023-02-05T19:07:57.659Z,38.7
2023-02-05T19:13:37.224Z,37.7
2023-02-05T19:19:16.413Z,37.7
2023-02-05T19:24:55.060Z,38.6
2023-02-05T19:30:33.605Z,37.4
2023-02-05T19:36:12.423Z,37.4
2023-02-05T19:41:50.153Z,37
2023-02-05T19:47:28.849Z,38.8
2023-02-05T19:52:52.166Z,39.1
2023-02-05T19:58:15.666Z,38.7
2023-02-05T20:03:40.818Z,37.6
2023-02-05T20:09:18.965Z,37.9
2023-02-05T20:14:58.277Z,36.5
2023-02-05T20:20:50.581Z,37.2
2023-02-05T20:26:28.906Z,35.8
2023-02-05T20:32:07.728Z,34.8
2023-02-05T20:37:45.930Z,34.3
2023-02-05T20:43:24.499Z,33.8
2023-02-05T20:48:46.958Z,33.1
2023-02-05T20:54:39.488Z,32
2023-02-05T21:00:18.356Z,30.9
2023-02-05T21:05:58.081Z,30.3
2023-02-05T21:11:35.849Z,29.8
2023-02-05T21:17:14.153Z,29.4
2023-02-05T21:22:21.261Z,29.1
2023-02-05T21:27:45.376Z,27.8
2023-02-05T21:33:24.408Z,26.8
2023-02-05T21:39:01.880Z,25.7
2023-02-05T21:44:36.462Z,29.2
2023-02-05T21:50:14.822Z,32.7
2023-02-05T21:55:37.239Z,31.2
2023-02-05T22:00:59.953Z,28.9
2023-02-05T22:06:23.102Z,27.2
2023-02-05T22:11:32.110Z,31
2023-02-05T22:17:10.535Z,32.4
2023-02-05T22:22:48.878Z,31.1
2023-02-05T22:28:27.512Z,28.2
2023-02-05T22:33:50.937Z,27.9
2023-02-05T22:39:29.679Z,31.9
2023-02-05T22:45:07.653Z,32.1
2023-02-05T22:50:45.688Z,30.8
2023-02-05T22:56:08.985Z,30.6
2023-02-05T23:01:49.826Z,32.7
2023-02-05T23:07:12.290Z,31.6
2023-02-05T23:12:38.162Z,29.6
2023-02-05T23:18:15.531Z,31.8
2023-02-05T23:23:53.253Z,32.4
2023-02-05T23:29:31.877Z,31
2023-02-05T23:34:54.733Z,31
2023-02-05T23:40:33.052Z,32.8
2023-02-05T23:46:11.447Z,31.6
2023-02-05T23:51:48.458Z,30.1
2023-02-05T23:57:28.667Z,32.3
